Tilghman, Maryland
Current Conditions -  °F | °C
As of 12:50 PM on Monday 26 Jan 2015 (Local Time) from KESN Reporting Station
Overcast Overcast  
Wind Chill: 28°   Ceiling: 800
Heat Index: 37°   Visibility: 10mi
Dew Point: 37°   Wind: 17mph
Humidity: 100%   Direction: 60°ENE
Pressure: 29.75"   Gusts: 29mph
Location:  38.72°N, 76.33°W
Report Text: KESN 261750Z 06015G25KT 10SM OVC008 03/03 A2975
Loading
Personal Weather Stations






























Interactive Weather Map New forecast layout! Learn more

10-Day Weather Forecast

Advertisements
Track Severe Weather on mobile